sensor_id;sensor_type;location;lat;lon;timestamp;P1;durP1;ratioP1;P2;durP2;ratioP2
55031;SDS011;40928;51.076;7.950;2022-09-20T00:00:04;1.73;;;0.90;;
55031;SDS011;40928;51.076;7.950;2022-09-20T00:02:31;7.28;;;1.20;;
55031;SDS011;40928;51.076;7.950;2022-09-20T00:04:56;2.35;;;1.00;;
55031;SDS011;40928;51.076;7.950;2022-09-20T00:07:21;3.45;;;1.15;;
55031;SDS011;40928;51.076;7.950;2022-09-20T00:09:47;2.40;;;1.10;;
55031;SDS011;40928;51.076;7.950;2022-09-20T00:12:12;3.35;;;1.33;;
55031;SDS011;40928;51.076;7.950;2022-09-20T00:14:38;1.98;;;0.93;;
55031;SDS011;40928;51.076;7.950;2022-09-20T00:17:03;5.35;;;1.35;;
55031;SDS011;40928;51.076;7.950;2022-09-20T00:19:29;3.63;;;1.30;;
55031;SDS011;40928;51.076;7.950;2022-09-20T00:21:54;6.25;;;1.40;;
55031;SDS011;40928;51.076;7.950;2022-09-20T00:24:20;3.03;;;1.00;;
55031;SDS011;40928;51.076;7.950;2022-09-20T00:26:45;2.13;;;1.13;;
55031;SDS011;40928;51.076;7.950;2022-09-20T00:29:11;3.85;;;1.75;;
55031;SDS011;40928;51.076;7.950;2022-09-20T00:31:37;5.20;;;0.95;;
55031;SDS011;40928;51.076;7.950;2022-09-20T00:34:04;7.25;;;1.52;;
55031;SDS011;40928;51.076;7.950;2022-09-20T00:36:48;5.82;;;1.33;;
55031;SDS011;40928;51.076;7.950;2022-09-20T00:39:14;4.88;;;1.70;;
55031;SDS011;40928;51.076;7.950;2022-09-20T00:41:40;4.68;;;1.60;;
55031;SDS011;40928;51.076;7.950;2022-09-20T00:49:52;7.93;;;2.70;;
55031;SDS011;40928;51.076;7.950;2022-09-20T00:52:22;12.57;;;2.85;;
55031;SDS011;40928;51.076;7.950;2022-09-20T00:54:48;7.18;;;2.28;;
55031;SDS011;40928;51.076;7.950;2022-09-20T00:57:14;4.25;;;1.58;;
55031;SDS011;40928;51.076;7.950;2022-09-20T00:59:40;11.80;;;2.38;;
55031;SDS011;40928;51.076;7.950;2022-09-20T01:02:20;8.27;;;2.28;;
55031;SDS011;40928;51.076;7.950;2022-09-20T01:04:50;10.25;;;3.88;;
55031;SDS011;40928;51.076;7.950;2022-09-20T01:07:17;8.60;;;3.30;;
55031;SDS011;40928;51.076;7.950;2022-09-20T01:09:46;9.40;;;3.42;;
55031;SDS011;40928;51.076;7.950;2022-09-20T01:12:13;8.63;;;2.90;;
55031;SDS011;40928;51.076;7.950;2022-09-20T01:14:44;7.22;;;2.72;;
55031;SDS011;40928;51.076;7.950;2022-09-20T01:17:12;8.20;;;3.17;;
55031;SDS011;40928;51.076;7.950;2022-09-20T01:28:06;9.32;;;2.95;;
55031;SDS011;40928;51.076;7.950;2022-09-20T01:30:37;10.75;;;2.58;;
55031;SDS011;40928;51.076;7.950;2022-09-20T01:36:00;9.68;;;3.38;;
55031;SDS011;40928;51.076;7.950;2022-09-20T01:38:32;10.18;;;3.47;;
55031;SDS011;40928;51.076;7.950;2022-09-20T01:41:13;11.50;;;3.72;;
55031;SDS011;40928;51.076;7.950;2022-09-20T01:54:42;10.20;;;4.03;;
55031;SDS011;40928;51.076;7.950;2022-09-20T02:25:03;8.57;;;3.92;;
55031;SDS011;40928;51.076;7.950;2022-09-20T02:30:42;9.10;;;4.00;;
55031;SDS011;40928;51.076;7.950;2022-09-20T02:38:40;9.50;;;3.92;;
55031;SDS011;40928;51.076;7.950;2022-09-20T02:57:50;17.00;;;4.97;;
55031;SDS011;40928;51.076;7.950;2022-09-20T03:00:22;10.93;;;4.30;;
55031;SDS011;40928;51.076;7.950;2022-09-20T03:05:48;9.52;;;3.90;;
55031;SDS011;40928;51.076;7.950;2022-09-20T03:10:53;15.60;;;6.10;;
55031;SDS011;40928;51.076;7.950;2022-09-20T03:13:49;14.07;;;5.55;;
55031;SDS011;40928;51.076;7.950;2022-09-20T03:27:38;13.73;;;6.05;;
55031;SDS011;40928;51.076;7.950;2022-09-20T03:35:56;9.30;;;4.00;;
55031;SDS011;40928;51.076;7.950;2022-09-20T03:44:14;7.35;;;3.20;;
55031;SDS011;40928;51.076;7.950;2022-09-20T03:47:14;12.32;;;3.38;;
55031;SDS011;40928;51.076;7.950;2022-09-20T03:49:51;8.88;;;3.72;;
55031;SDS011;40928;51.076;7.950;2022-09-20T04:01:00;9.50;;;3.72;;
55031;SDS011;40928;51.076;7.950;2022-09-20T04:03:42;9.20;;;3.25;;
55031;SDS011;40928;51.076;7.950;2022-09-20T04:08:44;10.25;;;4.45;;
55031;SDS011;40928;51.076;7.950;2022-09-20T04:19:22;9.30;;;3.55;;
55031;SDS011;40928;51.076;7.950;2022-09-20T04:21:56;5.07;;;2.35;;
55031;SDS011;40928;51.076;7.950;2022-09-20T04:29:49;15.23;;;4.63;;
55031;SDS011;40928;51.076;7.950;2022-09-20T04:38:33;13.00;;;5.32;;
55031;SDS011;40928;51.076;7.950;2022-09-20T05:05:41;4.05;;;1.52;;
55031;SDS011;40928;51.076;7.950;2022-09-20T05:19:20;14.55;;;2.15;;
55031;SDS011;40928;51.076;7.950;2022-09-20T05:22:07;6.07;;;1.13;;
55031;SDS011;40928;51.076;7.950;2022-09-20T05:28:12;5.93;;;1.92;;
55031;SDS011;40928;51.076;7.950;2022-09-20T05:30:52;3.80;;;1.88;;
55031;SDS011;40928;51.076;7.950;2022-09-20T05:36:18;3.72;;;1.83;;
55031;SDS011;40928;51.076;7.950;2022-09-20T05:41:58;8.13;;;1.77;;
55031;SDS011;40928;51.076;7.950;2022-09-20T05:47:34;6.07;;;2.63;;
55031;SDS011;40928;51.076;7.950;2022-09-20T05:52:43;6.70;;;2.38;;
55031;SDS011;40928;51.076;7.950;2022-09-20T05:58:19;11.30;;;2.10;;
55031;SDS011;40928;51.076;7.950;2022-09-20T06:01:07;8.00;;;2.10;;
55031;SDS011;40928;51.076;7.950;2022-09-20T06:06:44;12.20;;;1.60;;
55031;SDS011;40928;51.076;7.950;2022-09-20T06:23:57;8.25;;;3.67;;
55031;SDS011;40928;51.076;7.950;2022-09-20T06:26:26;13.40;;;4.78;;
55031;SDS011;40928;51.076;7.950;2022-09-20T06:28:57;18.42;;;8.38;;
55031;SDS011;40928;51.076;7.950;2022-09-20T06:31:26;13.40;;;7.20;;
55031;SDS011;40928;51.076;7.950;2022-09-20T06:34:12;13.18;;;5.93;;
55031;SDS011;40928;51.076;7.950;2022-09-20T06:36:42;10.98;;;5.88;;
55031;SDS011;40928;51.076;7.950;2022-09-20T06:42:33;12.23;;;5.07;;
55031;SDS011;40928;51.076;7.950;2022-09-20T06:44:58;7.20;;;3.75;;
55031;SDS011;40928;51.076;7.950;2022-09-20T06:47:24;9.95;;;3.85;;
55031;SDS011;40928;51.076;7.950;2022-09-20T06:49:51;6.25;;;2.88;;
55031;SDS011;40928;51.076;7.950;2022-09-20T06:52:17;5.63;;;2.42;;
55031;SDS011;40928;51.076;7.950;2022-09-20T06:54:45;11.85;;;1.88;;
55031;SDS011;40928;51.076;7.950;2022-09-20T06:57:13;12.20;;;2.30;;
55031;SDS011;40928;51.076;7.950;2022-09-20T06:59:42;11.60;;;2.63;;
55031;SDS011;40928;51.076;7.950;2022-09-20T07:02:08;8.00;;;1.92;;
55031;SDS011;40928;51.076;7.950;2022-09-20T07:04:35;5.70;;;1.02;;
55031;SDS011;40928;51.076;7.950;2022-09-20T07:07:01;7.65;;;1.52;;
55031;SDS011;40928;51.076;7.950;2022-09-20T07:09:28;8.52;;;1.52;;
55031;SDS011;40928;51.076;7.950;2022-09-20T07:11:54;11.45;;;1.42;;
55031;SDS011;40928;51.076;7.950;2022-09-20T07:14:23;7.90;;;1.73;;
55031;SDS011;40928;51.076;7.950;2022-09-20T07:16:50;12.82;;;1.30;;
55031;SDS011;40928;51.076;7.950;2022-09-20T07:19:17;4.55;;;1.45;;
55031;SDS011;40928;51.076;7.950;2022-09-20T07:21:42;5.68;;;1.13;;
55031;SDS011;40928;51.076;7.950;2022-09-20T07:24:08;8.70;;;1.42;;
55031;SDS011;40928;51.076;7.950;2022-09-20T07:26:33;9.23;;;2.13;;
55031;SDS011;40928;51.076;7.950;2022-09-20T07:28:59;4.97;;;0.98;;
55031;SDS011;40928;51.076;7.950;2022-09-20T07:31:26;12.20;;;1.08;;
55031;SDS011;40928;51.076;7.950;2022-09-20T07:33:53;6.10;;;0.93;;
55031;SDS011;40928;51.076;7.950;2022-09-20T07:36:19;9.10;;;1.38;;
55031;SDS011;40928;51.076;7.950;2022-09-20T07:38:46;4.65;;;0.95;;
55031;SDS011;40928;51.076;7.950;2022-09-20T07:41:17;6.65;;;2.17;;
55031;SDS011;40928;51.076;7.950;2022-09-20T07:43:43;7.03;;;1.00;;
55031;SDS011;40928;51.076;7.950;2022-09-20T07:46:09;5.25;;;1.30;;
55031;SDS011;40928;51.076;7.950;2022-09-20T07:48:37;5.25;;;0.98;;
55031;SDS011;40928;51.076;7.950;2022-09-20T07:51:05;8.65;;;1.35;;
55031;SDS011;40928;51.076;7.950;2022-09-20T07:53:32;7.93;;;1.42;;
55031;SDS011;40928;51.076;7.950;2022-09-20T07:55:59;8.18;;;1.58;;
55031;SDS011;40928;51.076;7.950;2022-09-20T07:58:32;7.38;;;1.98;;
55031;SDS011;40928;51.076;7.950;2022-09-20T08:00:59;4.93;;;1.30;;
55031;SDS011;40928;51.076;7.950;2022-09-20T08:03:30;6.47;;;2.50;;
55031;SDS011;40928;51.076;7.950;2022-09-20T08:06:04;14.27;;;1.45;;
55031;SDS011;40928;51.076;7.950;2022-09-20T08:11:02;8.40;;;1.70;;
55031;SDS011;40928;51.076;7.950;2022-09-20T08:13:40;10.27;;;1.38;;
55031;SDS011;40928;51.076;7.950;2022-09-20T08:16:08;5.80;;;1.08;;
55031;SDS011;40928;51.076;7.950;2022-09-20T08:18:36;5.22;;;1.38;;
55031;SDS011;40928;51.076;7.950;2022-09-20T08:21:05;10.13;;;1.13;;
55031;SDS011;40928;51.076;7.950;2022-09-20T08:23:42;8.68;;;1.50;;
55031;SDS011;40928;51.076;7.950;2022-09-20T08:26:11;7.82;;;1.55;;
55031;SDS011;40928;51.076;7.950;2022-09-20T08:28:38;12.00;;;2.03;;
55031;SDS011;40928;51.076;7.950;2022-09-20T08:31:11;8.60;;;1.95;;
55031;SDS011;40928;51.076;7.950;2022-09-20T08:33:38;18.10;;;2.10;;
55031;SDS011;40928;51.076;7.950;2022-09-20T08:36:05;18.77;;;2.83;;
55031;SDS011;40928;51.076;7.950;2022-09-20T08:38:32;8.75;;;2.40;;
55031;SDS011;40928;51.076;7.950;2022-09-20T08:41:18;11.52;;;2.58;;
55031;SDS011;40928;51.076;7.950;2022-09-20T08:43:57;11.77;;;2.33;;
55031;SDS011;40928;51.076;7.950;2022-09-20T08:46:25;13.70;;;2.55;;
55031;SDS011;40928;51.076;7.950;2022-09-20T08:48:56;21.48;;;3.22;;
55031;SDS011;40928;51.076;7.950;2022-09-20T08:51:22;24.80;;;2.40;;
55031;SDS011;40928;51.076;7.950;2022-09-20T08:53:54;9.32;;;1.88;;
55031;SDS011;40928;51.076;7.950;2022-09-20T08:56:22;15.45;;;2.80;;
55031;SDS011;40928;51.076;7.950;2022-09-20T08:58:53;10.80;;;1.98;;
55031;SDS011;40928;51.076;7.950;2022-09-20T09:01:22;9.13;;;1.90;;
55031;SDS011;40928;51.076;7.950;2022-09-20T09:03:50;15.43;;;2.15;;
55031;SDS011;40928;51.076;7.950;2022-09-20T09:06:18;9.25;;;2.00;;
55031;SDS011;40928;51.076;7.950;2022-09-20T09:08:46;9.93;;;1.58;;
55031;SDS011;40928;51.076;7.950;2022-09-20T09:11:16;7.55;;;1.50;;
55031;SDS011;40928;51.076;7.950;2022-09-20T09:16:30;6.00;;;1.20;;
55031;SDS011;40928;51.076;7.950;2022-09-20T09:18:57;6.20;;;1.50;;
55031;SDS011;40928;51.076;7.950;2022-09-20T09:21:55;14.13;;;1.30;;
55031;SDS011;40928;51.076;7.950;2022-09-20T09:24:30;8.95;;;1.58;;
55031;SDS011;40928;51.076;7.950;2022-09-20T09:27:06;4.20;;;1.02;;
55031;SDS011;40928;51.076;7.950;2022-09-20T09:29:50;8.02;;;1.15;;
55031;SDS011;40928;51.076;7.950;2022-09-20T09:32:29;9.05;;;1.10;;
55031;SDS011;40928;51.076;7.950;2022-09-20T09:35:19;4.90;;;1.00;;
55031;SDS011;40928;51.076;7.950;2022-09-20T09:38:00;2.45;;;0.80;;
55031;SDS011;40928;51.076;7.950;2022-09-20T09:40:30;3.67;;;1.10;;
55031;SDS011;40928;51.076;7.950;2022-09-20T09:42:58;7.95;;;1.10;;
55031;SDS011;40928;51.076;7.950;2022-09-20T09:45:30;4.22;;;0.95;;
55031;SDS011;40928;51.076;7.950;2022-09-20T09:47:57;6.07;;;1.05;;
55031;SDS011;40928;51.076;7.950;2022-09-20T09:50:26;6.70;;;0.80;;
55031;SDS011;40928;51.076;7.950;2022-09-20T09:55:24;5.15;;;0.98;;
55031;SDS011;40928;51.076;7.950;2022-09-20T09:58:03;4.72;;;0.60;;
55031;SDS011;40928;51.076;7.950;2022-09-20T10:00:56;3.83;;;0.45;;
55031;SDS011;40928;51.076;7.950;2022-09-20T10:22:26;1.88;;;0.30;;
55031;SDS011;40928;51.076;7.950;2022-09-20T10:25:15;1.77;;;0.45;;
55031;SDS011;40928;51.076;7.950;2022-09-20T10:31:00;3.28;;;0.40;;
55031;SDS011;40928;51.076;7.950;2022-09-20T10:36:21;4.03;;;0.25;;
55031;SDS011;40928;51.076;7.950;2022-09-20T10:39:03;1.85;;;0.40;;
55031;SDS011;40928;51.076;7.950;2022-09-20T10:44:52;1.38;;;0.20;;
55031;SDS011;40928;51.076;7.950;2022-09-20T10:47:20;2.03;;;0.30;;
55031;SDS011;40928;51.076;7.950;2022-09-20T11:04:00;3.67;;;0.30;;
55031;SDS011;40928;51.076;7.950;2022-09-20T11:09:21;2.47;;;0.30;;
55031;SDS011;40928;51.076;7.950;2022-09-20T11:11:52;3.60;;;0.30;;
55031;SDS011;40928;51.076;7.950;2022-09-20T11:14:26;2.17;;;0.30;;
55031;SDS011;40928;51.076;7.950;2022-09-20T11:19:50;3.05;;;0.43;;
55031;SDS011;40928;51.076;7.950;2022-09-20T11:22:34;2.00;;;0.40;;
55031;SDS011;40928;51.076;7.950;2022-09-20T11:30:35;2.67;;;0.25;;
55031;SDS011;40928;51.076;7.950;2022-09-20T11:36:15;0.75;;;0.30;;
55031;SDS011;40928;51.076;7.950;2022-09-20T11:41:54;2.72;;;0.40;;
55031;SDS011;40928;51.076;7.950;2022-09-20T11:44:24;2.58;;;0.50;;
55031;SDS011;40928;51.076;7.950;2022-09-20T11:55:46;2.92;;;0.45;;
55031;SDS011;40928;51.076;7.950;2022-09-20T11:58:23;4.63;;;0.70;;
55031;SDS011;40928;51.076;7.950;2022-09-20T12:00:51;4.78;;;0.38;;
55031;SDS011;40928;51.076;7.950;2022-09-20T12:06:19;2.13;;;0.20;;
55031;SDS011;40928;51.076;7.950;2022-09-20T12:08:54;3.38;;;0.30;;
55031;SDS011;40928;51.076;7.950;2022-09-20T12:11:30;1.63;;;0.40;;
55031;SDS011;40928;51.076;7.950;2022-09-20T12:16:41;0.60;;;0.20;;
55031;SDS011;40928;51.076;7.950;2022-09-20T12:24:27;3.58;;;0.40;;
55031;SDS011;40928;51.076;7.950;2022-09-20T12:33:16;5.28;;;0.43;;
55031;SDS011;40928;51.076;7.950;2022-09-20T12:43:32;3.03;;;0.30;;
55031;SDS011;40928;51.076;7.950;2022-09-20T12:46:01;3.92;;;0.50;;
55031;SDS011;40928;51.076;7.950;2022-09-20T12:48:30;4.65;;;0.50;;
55031;SDS011;40928;51.076;7.950;2022-09-20T12:51:24;3.05;;;0.50;;
55031;SDS011;40928;51.076;7.950;2022-09-20T12:54:14;3.15;;;0.40;;
55031;SDS011;40928;51.076;7.950;2022-09-20T12:56:40;1.95;;;0.45;;
55031;SDS011;40928;51.076;7.950;2022-09-20T12:59:21;2.75;;;0.40;;
55031;SDS011;40928;51.076;7.950;2022-09-20T13:01:53;4.68;;;0.50;;
55031;SDS011;40928;51.076;7.950;2022-09-20T13:07:29;1.85;;;0.20;;
55031;SDS011;40928;51.076;7.950;2022-09-20T13:10:00;1.15;;;0.10;;
55031;SDS011;40928;51.076;7.950;2022-09-20T13:12:30;1.63;;;0.17;;
55031;SDS011;40928;51.076;7.950;2022-09-20T13:15:00;2.10;;;0.22;;
55031;SDS011;40928;51.076;7.950;2022-09-20T13:17:26;0.73;;;0.20;;
55031;SDS011;40928;51.076;7.950;2022-09-20T13:19:55;2.40;;;0.30;;
55031;SDS011;40928;51.076;7.950;2022-09-20T13:22:23;2.67;;;0.50;;
55031;SDS011;40928;51.076;7.950;2022-09-20T13:24:50;3.65;;;0.45;;
55031;SDS011;40928;51.076;7.950;2022-09-20T13:27:24;3.10;;;0.22;;
55031;SDS011;40928;51.076;7.950;2022-09-20T13:29:54;1.48;;;0.20;;
55031;SDS011;40928;51.076;7.950;2022-09-20T13:32:26;6.32;;;0.28;;
55031;SDS011;40928;51.076;7.950;2022-09-20T13:37:37;3.45;;;0.30;;
55031;SDS011;40928;51.076;7.950;2022-09-20T13:40:17;19.90;;;2.05;;
55031;SDS011;40928;51.076;7.950;2022-09-20T13:42:45;1.13;;;0.17;;
55031;SDS011;40928;51.076;7.950;2022-09-20T13:45:12;3.08;;;0.40;;
55031;SDS011;40928;51.076;7.950;2022-09-20T13:47:42;3.83;;;0.63;;
55031;SDS011;40928;51.076;7.950;2022-09-20T13:52:49;7.35;;;0.80;;
55031;SDS011;40928;51.076;7.950;2022-09-20T13:55:24;1.50;;;0.20;;
55031;SDS011;40928;51.076;7.950;2022-09-20T13:57:50;1.85;;;0.50;;
55031;SDS011;40928;51.076;7.950;2022-09-20T14:00:17;4.63;;;0.40;;
55031;SDS011;40928;51.076;7.950;2022-09-20T14:02:43;1.00;;;0.20;;
55031;SDS011;40928;51.076;7.950;2022-09-20T14:05:17;5.60;;;0.65;;
55031;SDS011;40928;51.076;7.950;2022-09-20T14:07:44;1.80;;;0.30;;
55031;SDS011;40928;51.076;7.950;2022-09-20T14:12:56;1.55;;;0.20;;
55031;SDS011;40928;51.076;7.950;2022-09-20T14:15:23;2.50;;;0.45;;
55031;SDS011;40928;51.076;7.950;2022-09-20T14:17:51;3.22;;;0.35;;
55031;SDS011;40928;51.076;7.950;2022-09-20T14:20:18;3.17;;;0.38;;
55031;SDS011;40928;51.076;7.950;2022-09-20T14:22:44;6.05;;;0.77;;
55031;SDS011;40928;51.076;7.950;2022-09-20T14:27:38;16.83;;;0.60;;
55031;SDS011;40928;51.076;7.950;2022-09-20T14:30:04;2.75;;;0.25;;
55031;SDS011;40928;51.076;7.950;2022-09-20T14:35:17;3.80;;;0.55;;
55031;SDS011;40928;51.076;7.950;2022-09-20T14:38:27;2.42;;;0.40;;
55031;SDS011;40928;51.076;7.950;2022-09-20T14:40:42;3.28;;;0.40;;
55031;SDS011;40928;51.076;7.950;2022-09-20T14:43:26;1.30;;;0.20;;
55031;SDS011;40928;51.076;7.950;2022-09-20T14:45:56;1.70;;;0.28;;
55031;SDS011;40928;51.076;7.950;2022-09-20T14:53:50;1.73;;;0.20;;
55031;SDS011;40928;51.076;7.950;2022-09-20T14:56:25;5.03;;;0.45;;
55031;SDS011;40928;51.076;7.950;2022-09-20T14:59:04;6.63;;;0.55;;
55031;SDS011;40928;51.076;7.950;2022-09-20T15:01:31;4.43;;;0.80;;
55031;SDS011;40928;51.076;7.950;2022-09-20T15:03:59;4.30;;;0.55;;
55031;SDS011;40928;51.076;7.950;2022-09-20T15:06:33;3.83;;;0.30;;
55031;SDS011;40928;51.076;7.950;2022-09-20T15:09:00;2.92;;;0.40;;
55031;SDS011;40928;51.076;7.950;2022-09-20T15:11:25;7.72;;;0.95;;
55031;SDS011;40928;51.076;7.950;2022-09-20T15:13:53;4.85;;;0.70;;
55031;SDS011;40928;51.076;7.950;2022-09-20T15:16:18;4.80;;;0.60;;
55031;SDS011;40928;51.076;7.950;2022-09-20T15:18:44;5.55;;;0.68;;
55031;SDS011;40928;51.076;7.950;2022-09-20T15:21:10;3.38;;;0.40;;
55031;SDS011;40928;51.076;7.950;2022-09-20T15:23:36;5.00;;;0.60;;
55031;SDS011;40928;51.076;7.950;2022-09-20T15:26:03;9.07;;;2.03;;
55031;SDS011;40928;51.076;7.950;2022-09-20T15:28:30;4.88;;;1.40;;
55031;SDS011;40928;51.076;7.950;2022-09-20T15:30:57;1.55;;;0.50;;
55031;SDS011;40928;51.076;7.950;2022-09-20T15:33:23;11.32;;;1.45;;
55031;SDS011;40928;51.076;7.950;2022-09-20T15:35:49;4.30;;;0.93;;
55031;SDS011;40928;51.076;7.950;2022-09-20T15:38:16;4.35;;;0.50;;
55031;SDS011;40928;51.076;7.950;2022-09-20T15:40:44;9.38;;;1.15;;
55031;SDS011;40928;51.076;7.950;2022-09-20T15:43:13;5.07;;;0.45;;
55031;SDS011;40928;51.076;7.950;2022-09-20T15:45:54;3.92;;;0.30;;
55031;SDS011;40928;51.076;7.950;2022-09-20T15:48:25;3.55;;;0.40;;
55031;SDS011;40928;51.076;7.950;2022-09-20T15:51:08;4.25;;;0.65;;
55031;SDS011;40928;51.076;7.950;2022-09-20T15:53:36;2.83;;;0.60;;
55031;SDS011;40928;51.076;7.950;2022-09-20T15:56:06;1.48;;;0.45;;
55031;SDS011;40928;51.076;7.950;2022-09-20T15:58:42;0.93;;;0.40;;
55031;SDS011;40928;51.076;7.950;2022-09-20T16:01:10;1.73;;;0.45;;
55031;SDS011;40928;51.076;7.950;2022-09-20T16:03:35;5.07;;;0.65;;
55031;SDS011;40928;51.076;7.950;2022-09-20T16:06:02;1.10;;;0.50;;
55031;SDS011;40928;51.076;7.950;2022-09-20T16:08:39;3.30;;;0.77;;
55031;SDS011;40928;51.076;7.950;2022-09-20T16:11:07;3.20;;;0.40;;
55031;SDS011;40928;51.076;7.950;2022-09-20T16:13:36;1.95;;;0.65;;
55031;SDS011;40928;51.076;7.950;2022-09-20T16:16:03;4.63;;;0.60;;
55031;SDS011;40928;51.076;7.950;2022-09-20T16:18:30;2.38;;;0.50;;
55031;SDS011;40928;51.076;7.950;2022-09-20T16:21:15;1.63;;;0.45;;
55031;SDS011;40928;51.076;7.950;2022-09-20T16:23:44;7.20;;;0.65;;
55031;SDS011;40928;51.076;7.950;2022-09-20T16:26:12;1.50;;;0.38;;
55031;SDS011;40928;51.076;7.950;2022-09-20T16:28:38;2.33;;;0.28;;
55031;SDS011;40928;51.076;7.950;2022-09-20T16:31:04;1.63;;;0.47;;
55031;SDS011;40928;51.076;7.950;2022-09-20T16:33:31;5.03;;;1.00;;
55031;SDS011;40928;51.076;7.950;2022-09-20T16:35:58;1.50;;;0.80;;
55031;SDS011;40928;51.076;7.950;2022-09-20T16:38:24;2.53;;;0.55;;
55031;SDS011;40928;51.076;7.950;2022-09-20T16:40:49;4.28;;;0.60;;
55031;SDS011;40928;51.076;7.950;2022-09-20T16:43:19;1.85;;;0.45;;
55031;SDS011;40928;51.076;7.950;2022-09-20T16:45:56;4.45;;;0.80;;
55031;SDS011;40928;51.076;7.950;2022-09-20T16:48:25;2.72;;;0.68;;
55031;SDS011;40928;51.076;7.950;2022-09-20T16:50:55;3.75;;;0.68;;
55031;SDS011;40928;51.076;7.950;2022-09-20T16:53:24;1.63;;;0.90;;
55031;SDS011;40928;51.076;7.950;2022-09-20T16:55:50;1.85;;;1.05;;
55031;SDS011;40928;51.076;7.950;2022-09-20T16:58:16;3.17;;;0.80;;
55031;SDS011;40928;51.076;7.950;2022-09-20T17:00:42;1.92;;;0.60;;
55031;SDS011;40928;51.076;7.950;2022-09-20T17:03:07;4.38;;;0.68;;
55031;SDS011;40928;51.076;7.950;2022-09-20T17:05:33;1.88;;;0.65;;
55031;SDS011;40928;51.076;7.950;2022-09-20T17:07:58;5.50;;;0.60;;
55031;SDS011;40928;51.076;7.950;2022-09-20T17:10:25;4.05;;;0.70;;
55031;SDS011;40928;51.076;7.950;2022-09-20T17:12:53;3.60;;;0.55;;
55031;SDS011;40928;51.076;7.950;2022-09-20T17:15:22;5.88;;;1.10;;
55031;SDS011;40928;51.076;7.950;2022-09-20T17:17:48;4.90;;;1.30;;
55031;SDS011;40928;51.076;7.950;2022-09-20T17:20:14;4.32;;;1.40;;
55031;SDS011;40928;51.076;7.950;2022-09-20T17:22:39;4.93;;;1.08;;
55031;SDS011;40928;51.076;7.950;2022-09-20T17:25:07;1.88;;;0.85;;
55031;SDS011;40928;51.076;7.950;2022-09-20T17:27:32;6.10;;;1.70;;
55031;SDS011;40928;51.076;7.950;2022-09-20T17:30:00;9.60;;;2.17;;
55031;SDS011;40928;51.076;7.950;2022-09-20T17:32:26;7.22;;;1.90;;
55031;SDS011;40928;51.076;7.950;2022-09-20T17:34:53;6.75;;;1.70;;
55031;SDS011;40928;51.076;7.950;2022-09-20T17:37:18;2.70;;;1.52;;
55031;SDS011;40928;51.076;7.950;2022-09-20T17:39:44;8.32;;;1.80;;
55031;SDS011;40928;51.076;7.950;2022-09-20T17:42:10;6.32;;;1.70;;
55031;SDS011;40928;51.076;7.950;2022-09-20T17:44:35;5.80;;;1.10;;
55031;SDS011;40928;51.076;7.950;2022-09-20T17:47:02;4.78;;;1.10;;
55031;SDS011;40928;51.076;7.950;2022-09-20T17:49:27;1.67;;;1.00;;
55031;SDS011;40928;51.076;7.950;2022-09-20T17:51:54;7.13;;;1.75;;
55031;SDS011;40928;51.076;7.950;2022-09-20T17:54:20;4.90;;;1.67;;
55031;SDS011;40928;51.076;7.950;2022-09-20T17:56:48;3.17;;;1.27;;
55031;SDS011;40928;51.076;7.950;2022-09-20T17:59:16;2.67;;;1.50;;
55031;SDS011;40928;51.076;7.950;2022-09-20T18:01:43;3.90;;;1.38;;
55031;SDS011;40928;51.076;7.950;2022-09-20T18:04:10;3.78;;;1.40;;
55031;SDS011;40928;51.076;7.950;2022-09-20T18:06:37;3.50;;;1.67;;
55031;SDS011;40928;51.076;7.950;2022-09-20T18:09:10;3.40;;;0.90;;
55031;SDS011;40928;51.076;7.950;2022-09-20T18:11:41;2.58;;;0.90;;
55031;SDS011;40928;51.076;7.950;2022-09-20T18:14:10;3.50;;;1.00;;
55031;SDS011;40928;51.076;7.950;2022-09-20T18:16:37;3.00;;;1.45;;
55031;SDS011;40928;51.076;7.950;2022-09-20T18:19:04;4.50;;;0.77;;
55031;SDS011;40928;51.076;7.950;2022-09-20T18:21:30;7.13;;;1.42;;
55031;SDS011;40928;51.076;7.950;2022-09-20T18:23:58;5.93;;;1.75;;
55031;SDS011;40928;51.076;7.950;2022-09-20T18:26:24;6.20;;;2.58;;
55031;SDS011;40928;51.076;7.950;2022-09-20T18:31:18;4.55;;;0.80;;
55031;SDS011;40928;51.076;7.950;2022-09-20T18:33:44;1.77;;;0.68;;
55031;SDS011;40928;51.076;7.950;2022-09-20T18:36:10;6.38;;;1.42;;
55031;SDS011;40928;51.076;7.950;2022-09-20T18:38:35;2.67;;;0.90;;
55031;SDS011;40928;51.076;7.950;2022-09-20T18:41:01;2.65;;;0.60;;
55031;SDS011;40928;51.076;7.950;2022-09-20T18:43:30;3.03;;;1.10;;
55031;SDS011;40928;51.076;7.950;2022-09-20T18:45:56;3.17;;;1.50;;
55031;SDS011;40928;51.076;7.950;2022-09-20T18:48:23;1.00;;;0.73;;
55031;SDS011;40928;51.076;7.950;2022-09-20T18:50:56;2.00;;;0.90;;
55031;SDS011;40928;51.076;7.950;2022-09-20T18:53:24;1.83;;;0.80;;
55031;SDS011;40928;51.076;7.950;2022-09-20T18:55:54;3.20;;;1.20;;
55031;SDS011;40928;51.076;7.950;2022-09-20T18:58:21;2.45;;;1.17;;
55031;SDS011;40928;51.076;7.950;2022-09-20T19:00:49;1.58;;;0.95;;
55031;SDS011;40928;51.076;7.950;2022-09-20T19:03:31;3.63;;;0.95;;
55031;SDS011;40928;51.076;7.950;2022-09-20T19:06:22;5.00;;;1.00;;
55031;SDS011;40928;51.076;7.950;2022-09-20T19:09:02;1.60;;;0.80;;
55031;SDS011;40928;51.076;7.950;2022-09-20T19:11:58;3.00;;;0.73;;
55031;SDS011;40928;51.076;7.950;2022-09-20T19:14:31;7.32;;;0.70;;
55031;SDS011;40928;51.076;7.950;2022-09-20T19:17:10;2.42;;;0.93;;
55031;SDS011;40928;51.076;7.950;2022-09-20T19:19:53;4.68;;;1.42;;
55031;SDS011;40928;51.076;7.950;2022-09-20T19:25:13;3.17;;;1.00;;
55031;SDS011;40928;51.076;7.950;2022-09-20T19:27:48;1.70;;;0.70;;
55031;SDS011;40928;51.076;7.950;2022-09-20T19:30:14;2.85;;;0.82;;
55031;SDS011;40928;51.076;7.950;2022-09-20T19:32:40;5.22;;;1.08;;
55031;SDS011;40928;51.076;7.950;2022-09-20T19:35:18;2.25;;;0.90;;
55031;SDS011;40928;51.076;7.950;2022-09-20T19:40:43;5.05;;;1.52;;
55031;SDS011;40928;51.076;7.950;2022-09-20T19:43:39;2.88;;;1.55;;
55031;SDS011;40928;51.076;7.950;2022-09-20T19:48:50;6.88;;;1.80;;
55031;SDS011;40928;51.076;7.950;2022-09-20T19:51:29;2.95;;;1.20;;
55031;SDS011;40928;51.076;7.950;2022-09-20T19:53:56;5.22;;;1.35;;
55031;SDS011;40928;51.076;7.950;2022-09-20T19:56:26;4.13;;;1.25;;
55031;SDS011;40928;51.076;7.950;2022-09-20T19:58:54;3.05;;;1.25;;
55031;SDS011;40928;51.076;7.950;2022-09-20T20:01:23;3.88;;;1.70;;
55031;SDS011;40928;51.076;7.950;2022-09-20T20:03:53;2.00;;;1.10;;
55031;SDS011;40928;51.076;7.950;2022-09-20T20:09:44;7.03;;;2.80;;
55031;SDS011;40928;51.076;7.950;2022-09-20T20:17:26;5.68;;;2.22;;
55031;SDS011;40928;51.076;7.950;2022-09-20T20:20:25;3.60;;;1.92;;
55031;SDS011;40928;51.076;7.950;2022-09-20T20:28:24;6.70;;;1.30;;
55031;SDS011;40928;51.076;7.950;2022-09-20T20:30:51;3.17;;;1.27;;
55031;SDS011;40928;51.076;7.950;2022-09-20T20:33:17;2.50;;;1.13;;
55031;SDS011;40928;51.076;7.950;2022-09-20T20:35:52;6.28;;;1.40;;
55031;SDS011;40928;51.076;7.950;2022-09-20T20:38:21;3.30;;;1.27;;
55031;SDS011;40928;51.076;7.950;2022-09-20T20:41:23;5.80;;;1.33;;
55031;SDS011;40928;51.076;7.950;2022-09-20T20:43:44;2.05;;;0.85;;
55031;SDS011;40928;51.076;7.950;2022-09-20T20:46:12;4.60;;;1.10;;
55031;SDS011;40928;51.076;7.950;2022-09-20T20:48:40;2.25;;;1.50;;
55031;SDS011;40928;51.076;7.950;2022-09-20T20:51:07;2.28;;;1.23;;
55031;SDS011;40928;51.076;7.950;2022-09-20T20:53:35;1.90;;;0.82;;
55031;SDS011;40928;51.076;7.950;2022-09-20T20:56:09;7.80;;;1.98;;
55031;SDS011;40928;51.076;7.950;2022-09-20T20:58:39;2.38;;;1.52;;
55031;SDS011;40928;51.076;7.950;2022-09-20T21:01:16;9.30;;;2.95;;
55031;SDS011;40928;51.076;7.950;2022-09-20T21:03:44;18.80;;;4.68;;
55031;SDS011;40928;51.076;7.950;2022-09-20T21:06:11;12.02;;;3.67;;
55031;SDS011;40928;51.076;7.950;2022-09-20T21:08:38;6.57;;;2.28;;